sensor_id;sensor_type;location;lat;lon;timestamp;pressure;altitude;pressure_sealevel;temperature;humidity
56176;BME280;63065;51.082;17.016;2023-02-13T00:02:00;102384.80;;;5.96;53.89
56176;BME280;63065;51.082;17.016;2023-02-13T00:04:26;102388.78;;;6.04;53.85
56176;BME280;63065;51.082;17.016;2023-02-13T00:06:51;102387.77;;;6.02;53.80
56176;BME280;63065;51.082;17.016;2023-02-13T00:09:17;102387.75;;;6.09;53.84
56176;BME280;63065;51.082;17.016;2023-02-13T00:11:42;102380.29;;;6.13;53.97
56176;BME280;63065;51.082;17.016;2023-02-13T00:14:08;102379.99;;;6.18;53.81
56176;BME280;63065;51.082;17.016;2023-02-13T00:16:33;102376.45;;;6.15;53.63
56176;BME280;63065;51.082;17.016;2023-02-13T00:18:59;102374.55;;;6.28;53.35
56176;BME280;63065;51.082;17.016;2023-02-13T00:21:25;102373.49;;;6.17;53.23
56176;BME280;63065;51.082;17.016;2023-02-13T00:23:50;102373.87;;;6.05;53.31
56176;BME280;63065;51.082;17.016;2023-02-13T00:26:16;102373.85;;;5.89;53.53
56176;BME280;63065;51.082;17.016;2023-02-13T00:28:41;102374.82;;;6.05;53.57
56176;BME280;63065;51.082;17.016;2023-02-13T00:31:08;102373.90;;;5.89;53.33
56176;BME280;63065;51.082;17.016;2023-02-13T00:33:32;102367.79;;;6.30;53.19
56176;BME280;63065;51.082;17.016;2023-02-13T00:36:03;102371.09;;;6.41;52.69
56176;BME280;63065;51.082;17.016;2023-02-13T00:38:22;102371.30;;;6.14;53.12
56176;BME280;63065;51.082;17.016;2023-02-13T00:40:48;102373.92;;;5.90;53.15
56176;BME280;63065;51.082;17.016;2023-02-13T00:43:14;102378.76;;;6.05;53.13
56176;BME280;63065;51.082;17.016;2023-02-13T00:45:40;102375.50;;;6.03;53.19
56176;BME280;63065;51.082;17.016;2023-02-13T00:48:05;102379.03;;;5.78;53.29
56176;BME280;63065;51.082;17.016;2023-02-13T00:50:30;102377.53;;;5.93;52.75
56176;BME280;63065;51.082;17.016;2023-02-13T00:52:55;102376.51;;;5.76;52.99
56176;BME280;63065;51.082;17.016;2023-02-13T00:55:21;102375.77;;;6.10;52.89
56176;BME280;63065;51.082;17.016;2023-02-13T00:57:47;102372.14;;;5.92;52.92
56176;BME280;63065;51.082;17.016;2023-02-13T01:00:13;102375.61;;;6.04;52.38
56176;BME280;63065;51.082;17.016;2023-02-13T01:02:38;102373.10;;;6.11;52.15
56176;BME280;63065;51.082;17.016;2023-02-13T01:05:04;102376.48;;;6.44;52.01
56176;BME280;63065;51.082;17.016;2023-02-13T01:07:28;102375.82;;;5.89;52.45
56176;BME280;63065;51.082;17.016;2023-02-13T01:09:54;102373.48;;;6.19;52.40
56176;BME280;63065;51.082;17.016;2023-02-13T01:12:19;102374.07;;;6.14;52.54
56176;BME280;63065;51.082;17.016;2023-02-13T01:14:45;102372.12;;;6.13;52.43
56176;BME280;63065;51.082;17.016;2023-02-13T01:17:10;102373.03;;;6.18;52.80
56176;BME280;63065;51.082;17.016;2023-02-13T01:19:35;102370.15;;;6.06;52.30
56176;BME280;63065;51.082;17.016;2023-02-13T01:22:01;102367.76;;;6.01;52.35
56176;BME280;63065;51.082;17.016;2023-02-13T01:24:26;102370.97;;;6.20;52.47
56176;BME280;63065;51.082;17.016;2023-02-13T01:26:52;102368.40;;;5.99;51.91
56176;BME280;63065;51.082;17.016;2023-02-13T01:29:18;102370.34;;;6.24;52.34
56176;BME280;63065;51.082;17.016;2023-02-13T01:31:43;102365.94;;;6.05;51.96
56176;BME280;63065;51.082;17.016;2023-02-13T01:34:09;102364.85;;;6.22;51.64
56176;BME280;63065;51.082;17.016;2023-02-13T01:36:35;102367.40;;;6.10;52.09
56176;BME280;63065;51.082;17.016;2023-02-13T01:39:00;102362.43;;;6.14;51.85
56176;BME280;63065;51.082;17.016;2023-02-13T01:41:26;102358.29;;;6.05;52.01
56176;BME280;63065;51.082;17.016;2023-02-13T01:43:53;102361.91;;;6.23;52.02
56176;BME280;63065;51.082;17.016;2023-02-13T01:46:21;102364.45;;;5.95;52.10
56176;BME280;63065;51.082;17.016;2023-02-13T01:48:42;102365.08;;;6.03;51.91
56176;BME280;63065;51.082;17.016;2023-02-13T01:51:11;102362.21;;;6.15;51.70
56176;BME280;63065;51.082;17.016;2023-02-13T01:53:37;102361.26;;;6.32;52.01
56176;BME280;63065;51.082;17.016;2023-02-13T01:56:02;102357.94;;;6.01;52.10
56176;BME280;63065;51.082;17.016;2023-02-13T01:58:28;102355.91;;;5.85;51.78
56176;BME280;63065;51.082;17.016;2023-02-13T02:00:50;102351.67;;;5.74;52.11
56176;BME280;63065;51.082;17.016;2023-02-13T02:03:21;102348.74;;;5.98;52.20
56176;BME280;63065;51.082;17.016;2023-02-13T02:05:42;102345.83;;;5.93;52.12
56176;BME280;63065;51.082;17.016;2023-02-13T02:08:09;102337.24;;;6.35;51.49
56176;BME280;63065;51.082;17.016;2023-02-13T02:10:32;102336.61;;;5.89;51.77
56176;BME280;63065;51.082;17.016;2023-02-13T02:13:04;102337.21;;;5.96;51.76
56176;BME280;63065;51.082;17.016;2023-02-13T02:15:23;102339.36;;;6.18;51.89
56176;BME280;63065;51.082;17.016;2023-02-13T02:17:49;102342.52;;;5.94;51.83
56176;BME280;63065;51.082;17.016;2023-02-13T02:20:25;102345.88;;;6.15;51.92
56176;BME280;63065;51.082;17.016;2023-02-13T02:22:48;102345.10;;;6.22;51.84
56176;BME280;63065;51.082;17.016;2023-02-13T02:25:16;102342.17;;;6.22;51.62
56176;BME280;63065;51.082;17.016;2023-02-13T02:32:32;102336.32;;;6.31;51.45
56176;BME280;63065;51.082;17.016;2023-02-13T02:34:54;102333.05;;;5.77;51.71
56176;BME280;63065;51.082;17.016;2023-02-13T02:37:22;102332.87;;;6.32;51.85
56176;BME280;63065;51.082;17.016;2023-02-13T02:39:45;102336.94;;;5.96;51.81
56176;BME280;63065;51.082;17.016;2023-02-13T02:42:12;102335.47;;;5.89;52.03
56176;BME280;63065;51.082;17.016;2023-02-13T02:44:34;102335.79;;;5.93;51.91
56176;BME280;63065;51.082;17.016;2023-02-13T02:47:05;102334.89;;;6.17;51.94
56176;BME280;63065;51.082;17.016;2023-02-13T02:49:21;102330.48;;;6.02;51.97
56176;BME280;63065;51.082;17.016;2023-02-13T02:51:54;102332.09;;;6.34;51.72
56176;BME280;63065;51.082;17.016;2023-02-13T02:54:15;102334.53;;;6.12;51.76
56176;BME280;63065;51.082;17.016;2023-02-13T02:56:40;102332.26;;;6.02;51.67
56176;BME280;63065;51.082;17.016;2023-02-13T02:59:06;102334.16;;;6.01;51.72
56176;BME280;63065;51.082;17.016;2023-02-13T03:01:29;102337.53;;;6.27;51.89
56176;BME280;63065;51.082;17.016;2023-02-13T03:03:55;102339.73;;;6.15;52.40
56176;BME280;63065;51.082;17.016;2023-02-13T03:06:23;102340.33;;;5.82;52.44
56176;BME280;63065;51.082;17.016;2023-02-13T03:08:51;102344.04;;;5.87;52.52
56176;BME280;63065;51.082;17.016;2023-02-13T03:11:10;102342.74;;;6.31;51.92
56176;BME280;63065;51.082;17.016;2023-02-13T03:13:41;102339.82;;;5.80;51.86
56176;BME280;63065;51.082;17.016;2023-02-13T03:16:01;102333.25;;;6.35;51.90
56176;BME280;63065;51.082;17.016;2023-02-13T03:18:27;102331.71;;;5.96;52.18
56176;BME280;63065;51.082;17.016;2023-02-13T03:20:57;102327.50;;;5.83;52.60
56176;BME280;63065;51.082;17.016;2023-02-13T03:23:22;102325.50;;;5.86;52.54
56176;BME280;63065;51.082;17.016;2023-02-13T03:28:13;102326.07;;;6.06;52.96
56176;BME280;63065;51.082;17.016;2023-02-13T03:30:42;102330.31;;;6.00;52.90
56176;BME280;63065;51.082;17.016;2023-02-13T03:33:07;102331.76;;;5.98;52.80
56176;BME280;63065;51.082;17.016;2023-02-13T03:35:33;102338.39;;;6.22;52.53
56176;BME280;63065;51.082;17.016;2023-02-13T03:37:53;102340.68;;;5.96;53.09
56176;BME280;63065;51.082;17.016;2023-02-13T03:40:19;102336.27;;;6.09;52.86
56176;BME280;63065;51.082;17.016;2023-02-13T03:42:45;102335.68;;;5.69;53.24
56176;BME280;63065;51.082;17.016;2023-02-13T03:45:10;102338.80;;;5.74;53.15
56176;BME280;63065;51.082;17.016;2023-02-13T03:47:33;102337.80;;;6.05;53.03
56176;BME280;63065;51.082;17.016;2023-02-13T03:49:58;102336.30;;;6.11;53.15
56176;BME280;63065;51.082;17.016;2023-02-13T03:52:27;102339.05;;;5.68;52.84
56176;BME280;63065;51.082;17.016;2023-02-13T03:54:53;102339.65;;;6.08;53.26
56176;BME280;63065;51.082;17.016;2023-02-13T03:57:18;102340.85;;;5.82;53.36
56176;BME280;63065;51.082;17.016;2023-02-13T03:59:40;102342.99;;;5.95;53.29
56176;BME280;63065;51.082;17.016;2023-02-13T04:02:11;102347.33;;;5.84;53.81
56176;BME280;63065;51.082;17.016;2023-02-13T04:04:37;102343.18;;;5.76;53.94
56176;BME280;63065;51.082;17.016;2023-02-13T04:07:00;102339.97;;;5.81;54.14
56176;BME280;63065;51.082;17.016;2023-02-13T04:09:23;102338.61;;;5.95;53.99
56176;BME280;63065;51.082;17.016;2023-02-13T04:11:54;102339.84;;;6.11;53.78
56176;BME280;63065;51.082;17.016;2023-02-13T04:14:18;102337.99;;;5.84;53.83
56176;BME280;63065;51.082;17.016;2023-02-13T04:16:40;102338.58;;;6.19;53.78
56176;BME280;63065;51.082;17.016;2023-02-13T04:19:05;102337.24;;;5.98;54.20
56176;BME280;63065;51.082;17.016;2023-02-13T04:21:31;102333.52;;;5.72;54.40
56176;BME280;63065;51.082;17.016;2023-02-13T04:23:55;102333.59;;;5.73;54.38
56176;BME280;63065;51.082;17.016;2023-02-13T04:26:21;102328.51;;;5.65;54.77
56176;BME280;63065;51.082;17.016;2023-02-13T04:28:46;102325.26;;;6.00;54.58
56176;BME280;63065;51.082;17.016;2023-02-13T04:31:12;102324.59;;;6.03;54.60
56176;BME280;63065;51.082;17.016;2023-02-13T04:33:37;102322.69;;;5.72;55.03
56176;BME280;63065;51.082;17.016;2023-02-13T04:36:03;102323.16;;;5.95;55.23
56176;BME280;63065;51.082;17.016;2023-02-13T04:38:28;102321.46;;;5.92;55.52
56176;BME280;63065;51.082;17.016;2023-02-13T04:40:54;102326.26;;;5.82;55.35
56176;BME280;63065;51.082;17.016;2023-02-13T04:43:19;102328.96;;;5.57;55.44
56176;BME280;63065;51.082;17.016;2023-02-13T04:45:47;102331.62;;;5.84;55.70
56176;BME280;63065;51.082;17.016;2023-02-13T04:48:10;102326.72;;;6.09;55.17
56176;BME280;63065;51.082;17.016;2023-02-13T04:50:36;102323.29;;;5.83;55.84
56176;BME280;63065;51.082;17.016;2023-02-13T04:53:01;102320.52;;;5.87;55.90
56176;BME280;63065;51.082;17.016;2023-02-13T04:55:27;102320.29;;;5.89;55.92
56176;BME280;63065;51.082;17.016;2023-02-13T04:57:52;102325.32;;;6.04;55.70
56176;BME280;63065;51.082;17.016;2023-02-13T05:00:18;102319.60;;;5.94;55.76
56176;BME280;63065;51.082;17.016;2023-02-13T05:02:42;102317.93;;;5.64;56.14
56176;BME280;63065;51.082;17.016;2023-02-13T05:05:08;102315.84;;;5.91;56.11
56176;BME280;63065;51.082;17.016;2023-02-13T05:07:33;102312.60;;;5.83;56.03
56176;BME280;63065;51.082;17.016;2023-02-13T05:09:58;102308.39;;;5.90;56.25
56176;BME280;63065;51.082;17.016;2023-02-13T05:12:24;102307.04;;;5.82;56.58
56176;BME280;63065;51.082;17.016;2023-02-13T05:14:49;102305.81;;;5.87;56.62
56176;BME280;63065;51.082;17.016;2023-02-13T05:17:14;102307.56;;;5.63;57.01
56176;BME280;63065;51.082;17.016;2023-02-13T05:19:40;102308.96;;;5.64;57.19
56176;BME280;63065;51.082;17.016;2023-02-13T05:22:07;102310.04;;;5.69;57.26
56176;BME280;63065;51.082;17.016;2023-02-13T05:24:31;102309.19;;;5.69;57.15
56176;BME280;63065;51.082;17.016;2023-02-13T05:26:57;102307.86;;;5.69;57.24
56176;BME280;63065;51.082;17.016;2023-02-13T05:29:22;102307.99;;;5.48;57.35
56176;BME280;63065;51.082;17.016;2023-02-13T05:31:49;102312.46;;;5.79;57.15
56176;BME280;63065;51.082;17.016;2023-02-13T05:34:14;102313.06;;;5.60;57.29
56176;BME280;63065;51.082;17.016;2023-02-13T05:36:39;102314.65;;;5.60;57.39
56176;BME280;63065;51.082;17.016;2023-02-13T05:39:05;102316.59;;;5.65;57.50
56176;BME280;63065;51.082;17.016;2023-02-13T05:41:30;102313.63;;;5.56;57.71
56176;BME280;63065;51.082;17.016;2023-02-13T05:43:55;102316.10;;;5.79;57.44
56176;BME280;63065;51.082;17.016;2023-02-13T05:46:21;102316.70;;;5.65;57.73
56176;BME280;63065;51.082;17.016;2023-02-13T05:48:47;102316.94;;;5.49;57.77
56176;BME280;63065;51.082;17.016;2023-02-13T05:51:12;102319.89;;;6.27;57.49
56176;BME280;63065;51.082;17.016;2023-02-13T05:53:38;102318.33;;;5.83;57.16
56176;BME280;63065;51.082;17.016;2023-02-13T05:56:04;102322.68;;;5.98;56.96
56176;BME280;63065;51.082;17.016;2023-02-13T05:58:28;102325.90;;;5.88;57.28
56176;BME280;63065;51.082;17.016;2023-02-13T06:00:55;102326.00;;;5.91;57.11
56176;BME280;63065;51.082;17.016;2023-02-13T06:03:18;102325.55;;;5.79;57.48
56176;BME280;63065;51.082;17.016;2023-02-13T06:05:44;102325.39;;;5.86;57.36
56176;BME280;63065;51.082;17.016;2023-02-13T06:08:09;102326.00;;;5.89;57.23
56176;BME280;63065;51.082;17.016;2023-02-13T06:10:35;102327.73;;;5.96;57.35
56176;BME280;63065;51.082;17.016;2023-02-13T06:13:00;102327.86;;;5.89;57.32
56176;BME280;63065;51.082;17.016;2023-02-13T06:15:25;102329.20;;;6.05;56.94
56176;BME280;63065;51.082;17.016;2023-02-13T06:17:51;102335.80;;;6.01;57.04
56176;BME280;63065;51.082;17.016;2023-02-13T06:20:16;102337.89;;;6.19;56.77
56176;BME280;63065;51.082;17.016;2023-02-13T06:22:41;102337.56;;;6.05;56.97
56176;BME280;63065;51.082;17.016;2023-02-13T06:25:07;102336.93;;;5.69;57.00
56176;BME280;63065;51.082;17.016;2023-02-13T06:27:32;102339.51;;;5.74;57.14
56176;BME280;63065;51.082;17.016;2023-02-13T06:29:57;102341.73;;;6.03;57.17
56176;BME280;63065;51.082;17.016;2023-02-13T06:32:23;102348.21;;;5.96;57.08
56176;BME280;63065;51.082;17.016;2023-02-13T06:34:48;102353.20;;;5.72;57.29
56176;BME280;63065;51.082;17.016;2023-02-13T06:37:13;102352.29;;;5.93;57.08
56176;BME280;63065;51.082;17.016;2023-02-13T06:39:39;102350.14;;;5.97;57.40
56176;BME280;63065;51.082;17.016;2023-02-13T06:42:05;102353.43;;;5.79;57.19
56176;BME280;63065;51.082;17.016;2023-02-13T06:44:30;102354.69;;;5.99;57.26
56176;BME280;63065;51.082;17.016;2023-02-13T06:46:55;102352.78;;;6.31;57.05
56176;BME280;63065;51.082;17.016;2023-02-13T06:49:21;102352.64;;;5.95;57.53
56176;BME280;63065;51.082;17.016;2023-02-13T06:51:47;102355.59;;;5.93;57.38
56176;BME280;63065;51.082;17.016;2023-02-13T06:54:12;102354.39;;;5.81;57.74
56176;BME280;63065;51.082;17.016;2023-02-13T06:56:37;102356.20;;;5.88;57.47
56176;BME280;63065;51.082;17.016;2023-02-13T06:59:02;102353.88;;;5.95;57.36
56176;BME280;63065;51.082;17.016;2023-02-13T07:01:28;102354.84;;;5.98;57.49
56176;BME280;63065;51.082;17.016;2023-02-13T07:03:53;102352.67;;;6.26;56.68
56176;BME280;63065;51.082;17.016;2023-02-13T07:06:19;102351.47;;;5.70;57.35
56176;BME280;63065;51.082;17.016;2023-02-13T07:08:44;102353.99;;;5.92;57.38
56176;BME280;63065;51.082;17.016;2023-02-13T07:11:16;102355.45;;;6.33;56.75
56176;BME280;63065;51.082;17.016;2023-02-13T07:13:35;102356.75;;;6.14;56.86
56176;BME280;63065;51.082;17.016;2023-02-13T07:16:00;102350.98;;;6.19;57.28
56176;BME280;63065;51.082;17.016;2023-02-13T07:18:25;102348.30;;;6.10;57.31
56176;BME280;63065;51.082;17.016;2023-02-13T07:20:50;102345.60;;;6.06;57.65
56176;BME280;63065;51.082;17.016;2023-02-13T07:23:16;102342.20;;;6.22;57.38
56176;BME280;63065;51.082;17.016;2023-02-13T07:25:41;102340.50;;;6.07;57.20
56176;BME280;63065;51.082;17.016;2023-02-13T07:28:06;102341.11;;;6.12;57.02
56176;BME280;63065;51.082;17.016;2023-02-13T07:30:33;102340.53;;;6.16;56.77
56176;BME280;63065;51.082;17.016;2023-02-13T07:32:59;102341.13;;;6.45;56.55
56176;BME280;63065;51.082;17.016;2023-02-13T07:35:23;102340.70;;;6.26;56.57
56176;BME280;63065;51.082;17.016;2023-02-13T07:37:48;102339.98;;;6.32;57.06
56176;BME280;63065;51.082;17.016;2023-02-13T07:40:14;102339.12;;;6.04;56.73
56176;BME280;63065;51.082;17.016;2023-02-13T07:42:40;102339.04;;;5.98;57.06
56176;BME280;63065;51.082;17.016;2023-02-13T07:45:06;102340.43;;;6.21;57.05
56176;BME280;63065;51.082;17.016;2023-02-13T07:47:30;102336.07;;;6.57;56.92
56176;BME280;63065;51.082;17.016;2023-02-13T07:49:56;102334.99;;;6.36;56.66
56176;BME280;63065;51.082;17.016;2023-02-13T07:52:21;102336.32;;;6.59;56.85
56176;BME280;63065;51.082;17.016;2023-02-13T07:54:47;102335.02;;;6.47;56.95
56176;BME280;63065;51.082;17.016;2023-02-13T07:57:13;102336.75;;;6.32;57.45
56176;BME280;63065;51.082;17.016;2023-02-13T07:59:38;102338.27;;;6.53;56.88
56176;BME280;63065;51.082;17.016;2023-02-13T08:02:03;102340.67;;;6.74;56.05
56176;BME280;63065;51.082;17.016;2023-02-13T08:04:29;102343.49;;;6.41;56.81
56176;BME280;63065;51.082;17.016;2023-02-13T08:06:55;102344.55;;;6.28;57.52
56176;BME280;63065;51.082;17.016;2023-02-13T08:09:20;102344.46;;;6.15;58.27
56176;BME280;63065;51.082;17.016;2023-02-13T08:11:46;102341.42;;;6.21;58.34
56176;BME280;63065;51.082;17.016;2023-02-13T08:14:11;102341.41;;;6.49;57.93
56176;BME280;63065;51.082;17.016;2023-02-13T08:16:37;102347.12;;;6.15;58.37
56176;BME280;63065;51.082;17.016;2023-02-13T08:19:02;102350.18;;;6.09;58.28
56176;BME280;63065;51.082;17.016;2023-02-13T08:21:27;102350.23;;;6.50;57.76
56176;BME280;63065;51.082;17.016;2023-02-13T08:23:53;102343.10;;;6.54;57.28
56176;BME280;63065;51.082;17.016;2023-02-13T08:26:18;102346.43;;;6.63;58.17
56176;BME280;63065;51.082;17.016;2023-02-13T08:28:44;102349.03;;;6.67;57.43
56176;BME280;63065;51.082;17.016;2023-02-13T08:31:10;102342.83;;;6.53;57.57
56176;BME280;63065;51.082;17.016;2023-02-13T08:33:34;102341.07;;;6.99;57.15
56176;BME280;63065;51.082;17.016;2023-02-13T08:36:02;102342.52;;;6.74;57.45
56176;BME280;63065;51.082;17.016;2023-02-13T08:38:25;102345.66;;;6.38;58.18
56176;BME280;63065;51.082;17.016;2023-02-13T08:40:50;102345.97;;;6.11;59.78
56176;BME280;63065;51.082;17.016;2023-02-13T08:43:15;102345.19;;;5.84;60.85
56176;BME280;63065;51.082;17.016;2023-02-13T08:45:41;102345.77;;;6.12;61.33
56176;BME280;63065;51.082;17.016;2023-02-13T08:48:06;102347.78;;;5.96;60.64
56176;BME280;63065;51.082;17.016;2023-02-13T08:50:31;102349.01;;;6.15;60.44
56176;BME280;63065;51.082;17.016;2023-02-13T08:52:57;102347.79;;;6.19;60.61
56176;BME280;63065;51.082;17.016;2023-02-13T08:55:22;102348.02;;;6.28;60.51
56176;BME280;63065;51.082;17.016;2023-02-13T08:57:48;102344.24;;;6.06;60.93
56176;BME280;63065;51.082;17.016;2023-02-13T09:02:38;102341.53;;;5.90;62.25
56176;BME280;63065;51.082;17.016;2023-02-13T09:05:04;102347.36;;;6.12;62.41
56176;BME280;63065;51.082;17.016;2023-02-13T09:07:29;102351.92;;;6.14;61.53
56176;BME280;63065;51.082;17.016;2023-02-13T09:09:55;102356.76;;;6.04;62.75
56176;BME280;63065;51.082;17.016;2023-02-13T09:12:20;102355.57;;;6.15;62.50
56176;BME280;63065;51.082;17.016;2023-02-13T09:14:46;102355.75;;;6.05;62.65
56176;BME280;63065;51.082;17.016;2023-02-13T09:17:11;102358.85;;;6.53;61.07
56176;BME280;63065;51.082;17.016;2023-02-13T09:19:36;102363.38;;;6.59;60.94
56176;BME280;63065;51.082;17.016;2023-02-13T09:22:01;102365.43;;;6.02;62.40
56176;BME280;63065;51.082;17.016;2023-02-13T09:24:27;102371.94;;;6.55;61.24
56176;BME280;63065;51.082;17.016;2023-02-13T09:26:52;102377.27;;;6.66;61.42
56176;BME280;63065;51.082;17.016;2023-02-13T09:29:18;102383.69;;;6.30;60.29
56176;BME280;63065;51.082;17.016;2023-02-13T09:31:43;102383.40;;;5.72;61.06
56176;BME280;63065;51.082;17.016;2023-02-13T09:34:09;102389.50;;;5.64;60.52
56176;BME280;63065;51.082;17.016;2023-02-13T09:36:34;102383.71;;;5.80;61.01
56176;BME280;63065;51.082;17.016;2023-02-13T09:38:59;102389.35;;;5.49;60.47
56176;BME280;63065;51.082;17.016;2023-02-13T09:41:27;102392.63;;;6.11;59.68
56176;BME280;63065;51.082;17.016;2023-02-13T09:43:52;102396.28;;;6.57;58.80
56176;BME280;63065;51.082;17.016;2023-02-13T09:46:18;102401.12;;;6.08;59.49
56176;BME280;63065;51.082;17.016;2023-02-13T09:48:43;102399.28;;;5.46;60.82
56176;BME280;63065;51.082;17.016;2023-02-13T09:51:12;102395.66;;;5.86;60.96
56176;BME280;63065;51.082;17.016;2023-02-13T09:53:33;102397.05;;;5.54;60.19
56176;BME280;63065;51.082;17.016;2023-02-13T09:56:06;102400.44;;;5.67;61.52
56176;BME280;63065;51.082;17.016;2023-02-13T09:58:34;102400.09;;;6.23;59.23
56176;BME280;63065;51.082;17.016;2023-02-13T10:00:53;102401.35;;;6.19;58.42
56176;BME280;63065;51.082;17.016;2023-02-13T10:03:23;102406.52;;;5.98;58.87
56176;BME280;63065;51.082;17.016;2023-02-13T10:05:47;102406.46;;;6.14;58.72
56176;BME280;63065;51.082;17.016;2023-02-13T10:08:11;102404.67;;;6.14;58.13
56176;BME280;63065;51.082;17.016;2023-02-13T10:10:37;102402.99;;;6.70;57.66
56176;BME280;63065;51.082;17.016;2023-02-13T10:13:12;102400.49;;;6.27;58.41
56176;BME280;63065;51.082;17.016;2023-02-13T10:15:30;102398.11;;;5.44;60.45
56176;BME280;63065;51.082;17.016;2023-02-13T10:17:53;102396.77;;;5.01;61.87
56176;BME280;63065;51.082;17.016;2023-02-13T10:20:21;102395.83;;;5.62;60.38
56176;BME280;63065;51.082;17.016;2023-02-13T10:22:43;102397.86;;;6.34;57.61
56176;BME280;63065;51.082;17.016;2023-02-13T10:25:11;102395.20;;;5.98;59.16
56176;BME280;63065;51.082;17.016;2023-02-13T10:27:34;102396.39;;;6.26;58.09
56176;BME280;63065;51.082;17.016;2023-02-13T10:29:59;102393.90;;;5.79;57.42
56176;BME280;63065;51.082;17.016;2023-02-13T10:32:27;102392.50;;;6.38;56.32
56176;BME280;63065;51.082;17.016;2023-02-13T10:34:48;102390.17;;;6.33;56.73
56176;BME280;63065;51.082;17.016;2023-02-13T10:37:15;102386.99;;;6.71;56.37
56176;BME280;63065;51.082;17.016;2023-02-13T10:39:42;102388.70;;;6.84;54.70
56176;BME280;63065;51.082;17.016;2023-02-13T10:42:12;102389.76;;;6.45;53.73
56176;BME280;63065;51.082;17.016;2023-02-13T10:44:41;102385.34;;;6.48;54.43
56176;BME280;63065;51.082;17.016;2023-02-13T10:47:02;102382.22;;;6.76;53.23
56176;BME280;63065;51.082;17.016;2023-02-13T10:49:32;102381.79;;;6.64;52.87
56176;BME280;63065;51.082;17.016;2023-02-13T10:51:52;102380.53;;;6.99;53.27
56176;BME280;63065;51.082;17.016;2023-02-13T10:54:23;102373.96;;;7.01;52.34
56176;BME280;63065;51.082;17.016;2023-02-13T10:56:40;102375.32;;;6.24;53.60
56176;BME280;63065;51.082;17.016;2023-02-13T10:59:13;102374.44;;;6.79;54.48
56176;BME280;63065;51.082;17.016;2023-02-13T11:01:34;102368.46;;;5.68;55.52
56176;BME280;63065;51.082;17.016;2023-02-13T11:04:03;102360.41;;;6.87;54.23
56176;BME280;63065;51.082;17.016;2023-02-13T11:06:20;102360.23;;;6.97;54.12
56176;BME280;63065;51.082;17.016;2023-02-13T11:08:46;102360.40;;;6.86;53.04
56176;BME280;63065;51.082;17.016;2023-02-13T11:13:37;102363.46;;;6.85;52.74
56176;BME280;63065;51.082;17.016;2023-02-13T11:16:05;102358.80;;;6.96;53.39
56176;BME280;63065;51.082;17.016;2023-02-13T11:18:30;102363.17;;;6.89;51.94
56176;BME280;63065;51.082;17.016;2023-02-13T11:20:58;102351.62;;;6.96;53.15
56176;BME280;63065;51.082;17.016;2023-02-13T11:23:32;102351.34;;;6.65;52.60
56176;BME280;63065;51.082;17.016;2023-02-13T11:25:54;102352.06;;;6.54;53.06
56176;BME280;63065;51.082;17.016;2023-02-13T11:28:16;102351.14;;;6.55;53.36
56176;BME280;63065;51.082;17.016;2023-02-13T11:30:37;102344.81;;;6.83;53.44
56176;BME280;63065;51.082;17.016;2023-02-13T11:33:03;102350.86;;;6.22;54.15
56176;BME280;63065;51.082;17.016;2023-02-13T11:35:29;102342.41;;;6.94;52.29
56176;BME280;63065;51.082;17.016;2023-02-13T11:40:28;102337.80;;;6.22;54.46
56176;BME280;63065;51.082;17.016;2023-02-13T11:42:44;102335.57;;;6.45;54.55
56176;BME280;63065;51.082;17.016;2023-02-13T11:47:38;102342.74;;;6.34;53.72
56176;BME280;63065;51.082;17.016;2023-02-13T11:49:59;102342.63;;;6.41;53.43
56176;BME280;63065;51.082;17.016;2023-02-13T11:52:27;102336.73;;;5.92;54.65
56176;BME280;63065;51.082;17.016;2023-02-13T11:54:56;102337.56;;;5.32;55.59
56176;BME280;63065;51.082;17.016;2023-02-13T11:57:19;102340.63;;;6.31;53.45
56176;BME280;63065;51.082;17.016;2023-02-13T11:59:44;102344.31;;;6.58;52.60
56176;BME280;63065;51.082;17.016;2023-02-13T12:02:15;102341.84;;;6.93;50.30
56176;BME280;63065;51.082;17.016;2023-02-13T12:04:33;102343.83;;;6.28;50.53
56176;BME280;63065;51.082;17.016;2023-02-13T12:07:01;102343.30;;;6.76;50.67
56176;BME280;63065;51.082;17.016;2023-02-13T12:09:25;102339.71;;;6.72;50.62
56176;BME280;63065;51.082;17.016;2023-02-13T12:11:51;102340.57;;;6.45;49.07
56176;BME280;63065;51.082;17.016;2023-02-13T12:14:19;102340.38;;;7.01;50.64
56176;BME280;63065;51.082;17.016;2023-02-13T12:16:44;102336.99;;;7.19;48.98
56176;BME280;63065;51.082;17.016;2023-02-13T12:19:12;102339.25;;;6.91;49.80
56176;BME280;63065;51.082;17.016;2023-02-13T12:21:45;102337.01;;;6.98;49.82
56176;BME280;63065;51.082;17.016;2023-02-13T12:24:03;102340.75;;;7.18;49.75
56176;BME280;63065;51.082;17.016;2023-02-13T12:26:30;102335.61;;;6.57;50.16
56176;BME280;63065;51.082;17.016;2023-02-13T12:29:05;102331.74;;;6.64;49.52
56176;BME280;63065;51.082;17.016;2023-02-13T12:31:24;102330.42;;;7.29;49.96
56176;BME280;63065;51.082;17.016;2023-02-13T12:33:55;102322.95;;;6.93;49.39
56176;BME280;63065;51.082;17.016;2023-02-13T12:36:12;102322.12;;;6.95;49.98
56176;BME280;63065;51.082;17.016;2023-02-13T12:38:44;102324.11;;;7.24;48.68
56176;BME280;63065;51.082;17.016;2023-02-13T12:41:08;102324.03;;;7.30;49.33
56176;BME280;63065;51.082;17.016;2023-02-13T12:43:39;102316.45;;;6.92;49.15
56176;BME280;63065;51.082;17.016;2023-02-13T12:45:54;102315.19;;;6.97;49.76
56176;BME280;63065;51.082;17.016;2023-02-13T12:48:26;102310.14;;;7.03;49.85
56176;BME280;63065;51.082;17.016;2023-02-13T12:50:51;102317.21;;;6.37;49.64
56176;BME280;63065;51.082;17.016;2023-02-13T12:53:18;102316.97;;;6.54;51.53
56176;BME280;63065;51.082;17.016;2023-02-13T12:55:47;102324.47;;;6.60;50.95
56176;BME280;63065;51.082;17.016;2023-02-13T12:58:07;102321.87;;;6.41;51.78